createdAt,value
2023-03-18T00:00:00.405Z,26.82
2023-03-18T00:05:00.694Z,32.87
2023-03-18T00:10:00.659Z,47.64
2023-03-18T00:15:00.478Z,53.60
2023-03-18T00:20:00.359Z,43.73
2023-03-18T00:25:00.585Z,61.13
2023-03-18T00:30:00.389Z,27.44
2023-03-18T00:35:00.554Z,22.44
2023-03-18T00:40:00.457Z,22.73
2023-03-18T00:45:00.447Z,23.07
2023-03-18T00:50:00.396Z,24.35
2023-03-18T00:55:00.622Z,24.60
2023-03-18T01:00:00.475Z,41.23
2023-03-18T01:05:00.431Z,24.16
2023-03-18T01:10:00.834Z,23.19
2023-03-18T01:15:00.381Z,23.58
2023-03-18T01:20:00.423Z,25.90
2023-03-18T01:25:00.817Z,23.01
2023-03-18T01:30:00.366Z,23.23
2023-03-18T01:35:00.655Z,22.47
2023-03-18T01:40:00.591Z,23.26
2023-03-18T01:45:00.359Z,24.27
2023-03-18T01:50:00.468Z,29.57
2023-03-18T01:55:00.962Z,24.46
2023-03-18T02:00:00.373Z,24.61
2023-03-18T02:05:00.556Z,24.64
2023-03-18T02:10:00.932Z,26.65
2023-03-18T02:15:00.354Z,27.50
2023-03-18T02:20:00.816Z,25.02
2023-03-18T02:25:00.921Z,25.68
2023-03-18T02:30:00.441Z,25.73
2023-03-18T02:35:00.692Z,28.02
2023-03-18T02:40:00.644Z,26.39
2023-03-18T02:45:00.368Z,28.18
2023-03-18T02:50:00.472Z,26.03
2023-03-18T02:55:00.533Z,28.56
2023-03-18T03:00:00.379Z,26.51
2023-03-18T03:05:00.766Z,27.58
2023-03-18T03:10:00.409Z,26.46
2023-03-18T03:15:00.465Z,25.02
2023-03-18T03:20:00.514Z,28.42
2023-03-18T03:25:00.724Z,31.15
2023-03-18T03:30:00.355Z,27.11
2023-03-18T03:35:00.732Z,26.87
2023-03-18T03:40:00.608Z,25.79
2023-03-18T03:45:00.377Z,24.00
2023-03-18T03:50:00.528Z,24.83
2023-03-18T03:55:00.568Z,25.58
2023-03-18T04:00:00.378Z,23.76
2023-03-18T04:05:00.623Z,22.93
2023-03-18T04:10:01.146Z,24.58
2023-03-18T04:15:00.382Z,23.24
2023-03-18T04:20:00.585Z,27.70
2023-03-18T04:25:00.819Z,24.63
2023-03-18T04:30:00.349Z,25.28
2023-03-18T04:35:00.719Z,26.06
2023-03-18T04:40:00.737Z,24.71
2023-03-18T04:45:00.431Z,26.22
2023-03-18T04:50:00.506Z,28.34
2023-03-18T04:55:00.548Z,27.55
2023-03-18T05:00:00.420Z,27.41
2023-03-18T05:05:00.818Z,28.05
2023-03-18T05:10:00.553Z,26.97
2023-03-18T05:15:00.495Z,24.01
2023-03-18T05:20:00.719Z,24.32
2023-03-18T05:25:00.782Z,26.39
2023-03-18T05:30:01.469Z,23.98
2023-03-18T05:35:00.409Z,26.22
2023-03-18T05:40:03.253Z,26.74
2023-03-18T05:45:00.399Z,26.47
2023-03-18T05:50:00.549Z,24.47
2023-03-18T05:55:00.499Z,27.72
2023-03-18T06:00:00.441Z,25.99
2023-03-18T06:05:00.612Z,37.98
2023-03-18T06:10:00.605Z,27.41
2023-03-18T06:15:00.723Z,24.80
2023-03-18T06:20:00.466Z,27.55
2023-03-18T06:25:00.562Z,31.69
2023-03-18T06:30:00.374Z,28.19
2023-03-18T06:35:02.681Z,34.49
2023-03-18T06:40:00.418Z,25.81
2023-03-18T06:45:00.392Z,30.74
2023-03-18T06:50:00.526Z,29.44
2023-03-18T06:55:00.545Z,33.32
2023-03-18T07:00:00.382Z,30.05
2023-03-18T07:05:00.505Z,27.86
2023-03-18T07:10:03.560Z,30.98
2023-03-18T07:15:00.373Z,28.96
2023-03-18T07:20:01.451Z,31.39
2023-03-18T07:25:00.382Z,27.41
2023-03-18T07:30:00.570Z,25.16
2023-03-18T07:35:00.538Z,22.10
2023-03-18T07:40:01.873Z,29.72
2023-03-18T07:45:00.393Z,23.85
2023-03-18T07:50:00.959Z,25.70
2023-03-18T07:55:01.279Z,23.81
2023-03-18T08:00:00.394Z,24.97
2023-03-18T08:05:00.657Z,22.86
2023-03-18T08:10:01.158Z,21.98
2023-03-18T08:15:01.245Z,20.75
2023-03-18T08:20:00.424Z,19.49
2023-03-18T08:25:00.650Z,20.25
2023-03-18T08:30:03.063Z,20.51
2023-03-18T08:35:00.404Z,20.18
2023-03-18T08:40:00.502Z,22.26
2023-03-18T08:45:00.791Z,20.47
2023-03-18T08:50:00.578Z,19.40
2023-03-18T08:55:00.559Z,29.82
2023-03-18T09:00:00.925Z,17.19
2023-03-18T09:05:00.508Z,19.07
2023-03-18T09:10:00.906Z,16.31
2023-03-18T09:15:01.272Z,43.55
2023-03-18T09:20:02.589Z,18.93
2023-03-18T09:25:04.035Z,16.53
2023-03-18T09:30:00.451Z,14.98
2023-03-18T09:35:01.481Z,14.62
2023-03-18T09:40:00.866Z,16.39
2023-03-18T09:45:02.297Z,13.55
2023-03-18T09:50:00.388Z,13.84
2023-03-18T09:55:00.640Z,26.72
2023-03-18T10:00:00.455Z,14.14
2023-03-18T10:05:00.436Z,12.63
2023-03-18T10:10:00.874Z,12.77
2023-03-18T10:15:00.375Z,13.61
2023-03-18T10:20:00.391Z,13.80
2023-03-18T10:25:01.199Z,13.55
2023-03-18T10:30:00.382Z,13.35
2023-03-18T10:35:01.647Z,14.45
2023-03-18T10:40:00.454Z,15.27
2023-03-18T10:45:00.630Z,14.38
2023-03-18T10:50:00.392Z,14.84
2023-03-18T10:55:00.737Z,15.24
2023-03-18T11:00:00.403Z,14.21
2023-03-18T11:05:00.707Z,13.78
2023-03-18T11:10:01.090Z,15.24
2023-03-18T11:15:00.519Z,13.81
2023-03-18T11:20:00.429Z,14.28
2023-03-18T11:25:00.812Z,15.81
2023-03-18T11:30:00.505Z,16.86
2023-03-18T11:35:01.749Z,15.67
2023-03-18T11:40:01.077Z,14.81
2023-03-18T11:45:00.405Z,15.59
2023-03-18T11:50:00.403Z,15.10
2023-03-18T11:55:01.826Z,15.48
2023-03-18T12:00:00.362Z,16.71
2023-03-18T12:05:00.928Z,17.19
2023-03-18T12:10:00.705Z,20.37
2023-03-18T12:15:00.749Z,15.86
2023-03-18T12:20:00.382Z,14.99
2023-03-18T12:25:00.638Z,15.66
2023-03-18T12:30:00.443Z,15.10
2023-03-18T12:35:01.651Z,15.94
2023-03-18T12:40:00.684Z,15.53
2023-03-18T12:45:00.427Z,15.90
2023-03-18T12:50:00.437Z,14.17
2023-03-18T12:55:00.517Z,14.33
2023-03-18T13:00:00.365Z,16.20
2023-03-18T13:05:01.034Z,15.22
2023-03-18T13:10:01.624Z,15.52
2023-03-18T13:15:00.896Z,14.41
2023-03-18T13:20:00.502Z,15.16
2023-03-18T13:25:01.298Z,15.65
2023-03-18T13:30:01.288Z,15.27
2023-03-18T13:35:01.574Z,15.85
2023-03-18T13:40:00.459Z,15.13
2023-03-18T13:45:00.993Z,15.04
2023-03-18T13:50:00.855Z,15.23
2023-03-18T13:55:00.845Z,15.06
2023-03-18T14:00:00.715Z,16.50
2023-03-18T14:05:00.656Z,15.35
2023-03-18T14:10:17.202Z,16.99
2023-03-18T14:15:00.509Z,14.78
2023-03-18T14:20:00.436Z,16.32
2023-03-18T14:25:01.000Z,16.29
2023-03-18T14:30:03.075Z,20.37
2023-03-18T14:35:00.354Z,16.13
2023-03-18T14:40:01.301Z,15.07
2023-03-18T14:45:00.625Z,15.62
2023-03-18T14:50:00.630Z,14.07
2023-03-18T14:55:01.522Z,13.38
2023-03-18T15:00:00.381Z,14.40
2023-03-18T15:05:01.262Z,14.69
2023-03-18T15:10:01.739Z,14.77
2023-03-18T15:15:00.568Z,14.26
2023-03-18T15:20:00.887Z,13.61
2023-03-18T15:25:01.696Z,14.14
2023-03-18T15:30:00.530Z,13.94
2023-03-18T15:35:01.773Z,13.68
2023-03-18T15:40:00.499Z,14.13
2023-03-18T15:45:00.472Z,14.02
2023-03-18T15:50:00.729Z,14.44
2023-03-18T15:55:00.632Z,13.65
2023-03-18T16:00:01.646Z,13.75
2023-03-18T16:05:00.701Z,14.08
2023-03-18T16:10:01.077Z,14.10
2023-03-18T16:15:00.360Z,15.08
2023-03-18T16:20:00.447Z,13.82
2023-03-18T16:25:01.221Z,14.34
2023-03-18T16:30:00.516Z,15.52
2023-03-18T16:35:01.766Z,15.49
2023-03-18T16:40:01.429Z,15.16
2023-03-18T16:45:01.973Z,14.44
2023-03-18T16:50:00.800Z,13.78
2023-03-18T16:55:00.773Z,14.13
2023-03-18T17:00:00.530Z,15.69
2023-03-18T17:05:00.488Z,17.06
2023-03-18T17:10:00.793Z,13.38
2023-03-18T17:15:01.459Z,14.33
2023-03-18T17:20:00.530Z,15.10
2023-03-18T17:25:01.042Z,15.34
2023-03-18T17:30:00.374Z,17.52
2023-03-18T17:35:01.770Z,20.22
2023-03-18T17:40:00.574Z,26.13
2023-03-18T17:45:00.708Z,21.29
2023-03-18T17:50:00.392Z,20.32
2023-03-18T17:55:00.550Z,23.56
2023-03-18T18:00:00.417Z,22.41
2023-03-18T18:05:00.957Z,23.54
2023-03-18T18:10:00.674Z,28.38
2023-03-18T18:15:00.538Z,22.03
2023-03-18T18:20:00.422Z,25.10
2023-03-18T18:25:01.012Z,26.42
2023-03-18T18:30:00.434Z,27.11
2023-03-18T18:35:02.400Z,31.63
2023-03-18T18:40:01.082Z,29.67
2023-03-18T18:45:00.496Z,28.51
2023-03-18T18:50:00.408Z,29.18
2023-03-18T18:55:00.463Z,31.92
2023-03-18T19:00:00.437Z,34.03
2023-03-18T19:05:00.675Z,27.79
2023-03-18T19:10:00.775Z,26.82
2023-03-18T19:15:00.934Z,29.26
2023-03-18T19:20:00.379Z,31.42
2023-03-18T19:25:00.564Z,29.91
2023-03-18T19:30:01.386Z,28.16
2023-03-18T19:35:02.158Z,33.32
2023-03-18T19:40:01.101Z,39.52
2023-03-18T19:45:00.837Z,33.88
2023-03-18T19:50:00.704Z,32.11
2023-03-18T19:55:00.731Z,31.16
2023-03-18T20:00:00.990Z,39.83
2023-03-18T20:05:00.877Z,33.87
2023-03-18T20:10:01.235Z,32.12
2023-03-18T20:15:00.375Z,55.39
2023-03-18T20:20:00.463Z,35.19
2023-03-18T20:25:00.579Z,30.62
2023-03-18T20:30:00.373Z,30.86
2023-03-18T20:35:03.627Z,33.70
2023-03-18T20:40:00.466Z,54.72
2023-03-18T20:45:00.913Z,41.65
2023-03-18T20:50:00.732Z,34.19
2023-03-18T20:55:00.526Z,35.20
2023-03-18T21:00:00.403Z,36.82
2023-03-18T21:05:00.523Z,39.59
2023-03-18T21:10:00.634Z,45.08
2023-03-18T21:15:00.465Z,55.79
2023-03-18T21:20:15.131Z,54.52
2023-03-18T21:25:00.547Z,64.94
2023-03-18T21:30:00.511Z,94.98
2023-03-18T21:35:02.016Z,62.13
2023-03-18T21:40:00.464Z,58.86
2023-03-18T21:45:00.850Z,58.98
2023-03-18T21:50:00.497Z,47.19
2023-03-18T21:55:02.743Z,45.96
2023-03-18T22:00:00.372Z,38.69
2023-03-18T22:05:00.557Z,38.42
2023-03-18T22:10:01.169Z,38.75
2023-03-18T22:15:00.403Z,39.45
2023-03-18T22:20:00.897Z,44.70
2023-03-18T22:25:01.389Z,38.89
2023-03-18T22:30:00.359Z,37.76
2023-03-18T22:35:02.100Z,38.38
2023-03-18T22:40:01.230Z,39.17
2023-03-18T22:45:00.622Z,36.28
2023-03-18T22:50:00.996Z,37.55
2023-03-18T22:55:00.627Z,36.99
2023-03-18T23:00:00.391Z,38.00
2023-03-18T23:05:00.550Z,39.17
2023-03-18T23:10:01.729Z,39.25
2023-03-18T23:15:00.347Z,36.78
2023-03-18T23:20:00.518Z,37.69
2023-03-18T23:25:00.418Z,37.76
2023-03-18T23:30:00.815Z,38.56
2023-03-18T23:35:00.728Z,39.41
2023-03-18T23:40:00.457Z,40.19
2023-03-18T23:45:00.639Z,40.17
2023-03-18T23:50:04.832Z,41.90
2023-03-18T23:55:00.498Z,42.64
